createdAt,value
2022-08-31T00:02:18.531Z,23.78
2022-08-31T00:04:48.501Z,23.85
2022-08-31T00:07:18.471Z,23.85
2022-08-31T00:09:48.405Z,23.85
2022-08-31T00:12:18.577Z,23.76
2022-08-31T00:14:50.180Z,23.81
2022-08-31T00:17:20.374Z,23.76
2022-08-31T00:19:50.271Z,23.82
2022-08-31T00:22:20.203Z,23.81
2022-08-31T00:24:50.094Z,23.82
2022-08-31T00:27:21.962Z,23.81
2022-08-31T00:29:53.172Z,23.86
2022-08-31T00:32:25.398Z,23.88
2022-08-31T00:34:59.173Z,23.88
2022-08-31T00:37:29.074Z,23.74
2022-08-31T00:39:59.005Z,23.78
2022-08-31T00:42:29.092Z,23.84
2022-08-31T00:45:00.346Z,23.86
2022-08-31T00:47:30.313Z,23.89
2022-08-31T00:50:02.273Z,23.89
2022-08-31T00:52:37.744Z,23.82
2022-08-31T00:55:14.037Z,23.79
2022-08-31T00:57:47.647Z,23.81
2022-08-31T01:00:24.662Z,23.78
2022-08-31T01:02:56.165Z,23.83
2022-08-31T01:05:26.770Z,23.78
2022-08-31T01:07:57.535Z,23.75
2022-08-31T01:10:31.821Z,23.60
2022-08-31T01:13:03.104Z,23.69
2022-08-31T01:15:35.814Z,23.57
2022-08-31T01:18:07.760Z,23.67
2022-08-31T01:20:49.091Z,23.68
2022-08-31T01:23:24.478Z,23.67
2022-08-31T01:25:57.049Z,23.70
2022-08-31T01:28:27.693Z,23.68
2022-08-31T01:31:05.538Z,23.49
2022-08-31T01:33:36.899Z,23.63
2022-08-31T01:36:08.092Z,23.60
2022-08-31T01:38:39.325Z,23.63
2022-08-31T01:41:09.502Z,23.65
2022-08-31T01:43:43.177Z,23.64
2022-08-31T01:46:14.758Z,23.61
2022-08-31T01:48:46.699Z,23.62
2022-08-31T01:51:19.072Z,23.52
2022-08-31T01:53:52.913Z,23.49
2022-08-31T01:56:25.264Z,23.32
2022-08-31T01:58:55.166Z,23.33
2022-08-31T02:01:34.307Z,23.36
2022-08-31T02:04:05.497Z,23.33
2022-08-31T02:06:36.187Z,23.30
2022-08-31T02:09:08.300Z,23.18
2022-08-31T02:11:38.484Z,22.99
2022-08-31T02:14:09.406Z,23.22
2022-08-31T02:16:39.948Z,23.17
2022-08-31T02:19:10.387Z,23.07
2022-08-31T02:21:40.567Z,23.11
2022-08-31T02:24:12.587Z,23.05
2022-08-31T02:26:42.917Z,23.11
2022-08-31T02:29:12.998Z,23.05
2022-08-31T02:31:42.990Z,22.98
2022-08-31T02:34:14.100Z,22.98
2022-08-31T02:36:45.287Z,22.98
2022-08-31T02:39:16.645Z,22.89
2022-08-31T02:41:47.334Z,22.88
2022-08-31T02:44:17.284Z,22.93
2022-08-31T02:46:47.179Z,22.86
2022-08-31T02:49:17.126Z,22.84
2022-08-31T02:51:47.282Z,22.78
2022-08-31T02:54:19.521Z,22.80
2022-08-31T02:56:49.352Z,22.79
2022-08-31T02:59:20.817Z,22.78
2022-08-31T03:01:54.288Z,22.70
2022-08-31T03:04:24.463Z,22.69
2022-08-31T03:06:54.460Z,22.68
2022-08-31T03:09:25.909Z,22.83
2022-08-31T03:11:55.804Z,22.81
2022-08-31T03:14:26.577Z,22.81
2022-08-31T03:16:57.792Z,22.74
2022-08-31T03:19:27.853Z,22.57
2022-08-31T03:21:57.750Z,22.77
2022-08-31T03:24:29.163Z,22.90
2022-08-31T03:26:59.224Z,22.87
2022-08-31T03:29:29.185Z,22.99
2022-08-31T03:31:59.118Z,22.85
2022-08-31T03:34:29.137Z,22.91
2022-08-31T03:37:00.712Z,22.87
2022-08-31T03:39:32.089Z,22.99
2022-08-31T03:42:02.089Z,22.81
2022-08-31T03:44:31.943Z,22.93
2022-08-31T03:47:01.953Z,22.94
2022-08-31T03:49:31.903Z,22.84
2022-08-31T03:52:02.311Z,22.76
2022-08-31T03:54:33.703Z,22.88
2022-08-31T03:57:05.383Z,22.93
2022-08-31T03:59:35.371Z,22.77
2022-08-31T04:02:05.528Z,22.88
2022-08-31T04:04:35.466Z,22.88
2022-08-31T04:07:05.411Z,22.84
2022-08-31T04:09:36.731Z,22.84
2022-08-31T04:12:06.699Z,22.87
2022-08-31T04:14:36.617Z,22.93
2022-08-31T04:17:06.763Z,22.91
2022-08-31T04:19:36.703Z,22.98
2022-08-31T04:22:06.615Z,23.04
2022-08-31T04:24:37.952Z,23.03
2022-08-31T04:27:08.600Z,23.05
2022-08-31T04:29:39.598Z,23.01
2022-08-31T04:32:10.002Z,23.03
2022-08-31T04:34:56.084Z,23.07
2022-08-31T04:37:26.696Z,22.98
2022-08-31T04:39:59.124Z,22.95
2022-08-31T04:42:30.191Z,22.94
2022-08-31T04:45:00.224Z,22.84
2022-08-31T04:47:30.515Z,22.99
2022-08-31T04:50:00.838Z,22.85
2022-08-31T04:52:30.849Z,22.68
2022-08-31T04:55:02.965Z,22.66
2022-08-31T04:57:35.513Z,22.61
2022-08-31T05:00:06.958Z,22.57
2022-08-31T05:02:37.482Z,22.56
2022-08-31T05:05:08.414Z,22.52
2022-08-31T05:07:39.257Z,22.59
2022-08-31T05:10:11.631Z,22.57
2022-08-31T05:12:41.478Z,22.55
2022-08-31T05:15:11.959Z,22.73
2022-08-31T05:17:41.906Z,22.90
2022-08-31T05:20:12.019Z,23.05
2022-08-31T05:22:41.893Z,23.09
2022-08-31T05:25:13.072Z,23.23
2022-08-31T05:27:43.303Z,23.37
2022-08-31T05:30:14.311Z,23.36
2022-08-31T05:32:45.767Z,23.38
2022-08-31T05:35:16.332Z,23.30
2022-08-31T05:37:46.473Z,23.43
2022-08-31T05:40:19.422Z,23.52
2022-08-31T05:42:49.827Z,23.63
2022-08-31T05:45:19.804Z,23.61
2022-08-31T05:47:49.612Z,23.67
2022-08-31T05:50:19.741Z,23.74
2022-08-31T05:52:49.929Z,23.81
2022-08-31T05:55:21.302Z,23.93
2022-08-31T05:57:52.727Z,23.96
2022-08-31T06:00:23.287Z,24.11
2022-08-31T06:02:54.034Z,24.24
2022-08-31T06:05:24.150Z,24.25
2022-08-31T06:07:55.235Z,24.41
2022-08-31T06:10:26.844Z,24.43
2022-08-31T06:12:57.774Z,24.55
2022-08-31T06:15:27.689Z,24.58
2022-08-31T06:17:57.858Z,24.71
2022-08-31T06:20:30.286Z,24.67
2022-08-31T06:23:03.124Z,24.86
2022-08-31T06:25:36.697Z,25.02
2022-08-31T06:28:07.413Z,25.08
2022-08-31T06:30:54.336Z,24.98
2022-08-31T06:33:24.988Z,25.11
2022-08-31T06:35:54.830Z,25.19
2022-08-31T06:38:26.529Z,25.28
2022-08-31T06:41:00.605Z,25.38
2022-08-31T06:43:30.525Z,25.39
2022-08-31T06:46:00.517Z,25.51
2022-08-31T06:48:30.549Z,25.49
2022-08-31T06:51:02.886Z,25.60
2022-08-31T06:53:33.038Z,25.64
2022-08-31T06:56:07.101Z,25.60
2022-08-31T06:58:53.900Z,25.56
2022-08-31T07:01:35.527Z,25.95
2022-08-31T07:04:08.313Z,25.89
2022-08-31T07:06:41.004Z,25.98
2022-08-31T07:09:13.273Z,25.99
2022-08-31T07:11:46.435Z,25.97
2022-08-31T07:14:18.385Z,26.18
2022-08-31T07:16:48.314Z,26.17
2022-08-31T07:19:18.978Z,26.18
2022-08-31T07:21:51.191Z,26.11
2022-08-31T07:24:24.292Z,26.16
2022-08-31T07:26:59.024Z,26.07
2022-08-31T07:29:32.043Z,26.19
2022-08-31T07:32:02.815Z,26.19
2022-08-31T07:34:34.011Z,26.24
2022-08-31T07:37:22.639Z,26.26
2022-08-31T07:40:10.566Z,26.39
2022-08-31T07:42:44.572Z,26.44
2022-08-31T07:45:22.516Z,26.47
2022-08-31T07:47:55.268Z,26.52
2022-08-31T07:50:27.398Z,26.55
2022-08-31T07:53:00.397Z,26.63
2022-08-31T07:55:30.568Z,26.66
2022-08-31T07:58:03.517Z,26.71
2022-08-31T08:00:36.135Z,26.83
2022-08-31T08:03:08.356Z,26.79
2022-08-31T08:05:38.786Z,26.69
2022-08-31T08:08:13.908Z,27.04
2022-08-31T08:10:52.152Z,27.08
2022-08-31T08:13:24.457Z,27.05
2022-08-31T08:15:54.662Z,27.08
2022-08-31T08:18:25.317Z,27.15
2022-08-31T08:20:55.526Z,27.24
2022-08-31T08:23:28.279Z,27.35
2022-08-31T08:26:01.078Z,27.30
2022-08-31T08:28:39.767Z,27.34
2022-08-31T08:31:15.352Z,27.37
2022-08-31T08:33:46.504Z,27.50
2022-08-31T08:36:18.377Z,27.55
2022-08-31T08:38:51.253Z,27.60
2022-08-31T08:41:24.761Z,27.56
2022-08-31T08:43:57.348Z,27.70
2022-08-31T08:46:35.329Z,27.77
2022-08-31T08:49:16.291Z,27.82
2022-08-31T08:51:48.118Z,27.91
2022-08-31T08:54:27.412Z,27.93
2022-08-31T08:56:58.040Z,27.93
2022-08-31T08:59:29.739Z,28.01
2022-08-31T09:02:07.046Z,28.11
2022-08-31T09:05:00.207Z,28.19
2022-08-31T09:07:44.505Z,28.24
2022-08-31T09:10:26.759Z,28.35
2022-08-31T09:13:09.879Z,28.29
2022-08-31T09:15:53.972Z,28.31
2022-08-31T09:18:33.267Z,28.44
2022-08-31T09:21:05.874Z,28.47
2022-08-31T09:23:44.301Z,28.48
2022-08-31T09:26:17.674Z,28.57
2022-08-31T09:28:52.958Z,28.72
2022-08-31T09:31:46.634Z,28.73
2022-08-31T09:34:29.646Z,28.65
2022-08-31T09:37:16.575Z,28.77
2022-08-31T09:39:49.822Z,28.73
2022-08-31T09:42:31.050Z,28.66
2022-08-31T09:45:04.173Z,28.57
2022-08-31T09:47:52.198Z,28.73
2022-08-31T09:50:29.355Z,28.77
2022-08-31T09:53:41.253Z,28.66
2022-08-31T09:56:15.798Z,28.74
2022-08-31T09:58:49.240Z,28.90
2022-08-31T10:01:34.100Z,29.03
2022-08-31T10:04:18.328Z,29.04
2022-08-31T10:06:55.345Z,28.95
2022-08-31T10:09:37.307Z,29.10
2022-08-31T10:12:12.622Z,29.09
2022-08-31T10:14:50.819Z,28.97
2022-08-31T10:17:32.007Z,29.19
2022-08-31T10:20:08.986Z,29.17
2022-08-31T10:22:42.520Z,29.09
2022-08-31T10:25:21.971Z,29.12
2022-08-31T10:27:58.695Z,29.18
2022-08-31T10:30:39.281Z,29.41
2022-08-31T10:33:17.968Z,29.39
2022-08-31T10:35:55.932Z,29.51
2022-08-31T10:38:31.849Z,29.53
2022-08-31T10:41:11.484Z,29.56
2022-08-31T10:43:49.134Z,29.59
2022-08-31T10:46:19.259Z,29.64
2022-08-31T10:48:54.428Z,29.76
2022-08-31T10:51:34.077Z,29.74
2022-08-31T10:54:24.710Z,29.87
2022-08-31T10:57:01.335Z,29.90
2022-08-31T10:59:37.225Z,29.81
2022-08-31T11:02:33.576Z,29.70
2022-08-31T11:05:26.165Z,29.81
2022-08-31T11:08:06.688Z,29.75
2022-08-31T11:10:48.483Z,29.74
2022-08-31T11:13:39.680Z,29.78
2022-08-31T11:16:23.446Z,29.90
2022-08-31T11:19:16.863Z,30.15
2022-08-31T11:22:05.625Z,30.14
2022-08-31T11:25:08.805Z,29.89
2022-08-31T11:27:43.224Z,29.95
2022-08-31T11:30:24.398Z,30.22
2022-08-31T11:32:57.058Z,30.23
2022-08-31T11:36:05.375Z,30.23
2022-08-31T11:38:48.786Z,30.25
2022-08-31T11:41:39.249Z,30.48
2022-08-31T11:44:11.336Z,30.50
2022-08-31T11:46:53.169Z,30.52
2022-08-31T11:49:43.810Z,30.58
2022-08-31T11:52:29.698Z,30.61
2022-08-31T11:55:28.526Z,30.57
2022-08-31T11:58:23.133Z,30.59
2022-08-31T12:00:58.598Z,30.39
2022-08-31T12:03:50.759Z,30.22
2022-08-31T12:07:11.198Z,30.34
2022-08-31T12:10:04.647Z,30.30
2022-08-31T12:12:51.353Z,30.29
2022-08-31T12:15:33.163Z,30.41
2022-08-31T12:18:18.647Z,30.35
2022-08-31T12:21:15.495Z,30.13
2022-08-31T12:23:59.732Z,30.51
2022-08-31T12:27:00.436Z,30.60
2022-08-31T12:29:32.455Z,30.51
2022-08-31T12:32:32.709Z,30.51
2022-08-31T12:35:15.598Z,30.43
2022-08-31T12:37:46.505Z,30.48
2022-08-31T12:40:20.926Z,30.43
2022-08-31T12:42:58.004Z,30.49
2022-08-31T12:45:56.488Z,30.37
2022-08-31T12:49:02.904Z,30.02
2022-08-31T12:51:44.464Z,29.06
2022-08-31T12:54:30.924Z,28.54
2022-08-31T12:57:15.149Z,28.19
2022-08-31T13:00:02.098Z,27.95
2022-08-31T13:02:35.849Z,27.77
2022-08-31T13:05:15.295Z,27.62
2022-08-31T13:07:45.228Z,27.65
2022-08-31T13:10:17.500Z,27.40
2022-08-31T13:12:52.569Z,27.38
2022-08-31T13:15:25.511Z,27.22
2022-08-31T13:17:56.610Z,27.08
2022-08-31T13:20:35.554Z,26.95
2022-08-31T13:23:11.689Z,26.97
2022-08-31T13:25:42.418Z,26.85
2022-08-31T13:28:26.232Z,26.88
2022-08-31T13:31:03.132Z,26.90
2022-08-31T13:33:36.060Z,26.90
2022-08-31T13:36:11.111Z,26.95
2022-08-31T13:38:49.995Z,27.04
2022-08-31T13:41:28.396Z,27.08
2022-08-31T13:44:02.615Z,27.04
2022-08-31T13:46:44.446Z,26.89
2022-08-31T13:49:32.405Z,26.77
2022-08-31T13:52:05.537Z,26.78
2022-08-31T13:54:37.020Z,26.74
2022-08-31T13:57:19.669Z,26.73
2022-08-31T13:59:50.094Z,26.77
2022-08-31T14:02:37.068Z,26.75
2022-08-31T14:05:10.041Z,26.58
2022-08-31T14:08:09.574Z,26.37
2022-08-31T14:10:46.282Z,26.31
2022-08-31T14:13:20.914Z,26.41
2022-08-31T14:15:53.544Z,26.38
2022-08-31T14:18:28.564Z,26.43
2022-08-31T14:21:22.748Z,26.47
2022-08-31T14:24:01.581Z,26.59
2022-08-31T14:26:34.708Z,26.80
2022-08-31T14:29:10.673Z,26.88
2022-08-31T14:31:46.961Z,26.91
2022-08-31T14:34:30.370Z,26.95
2022-08-31T14:37:06.597Z,27.04
2022-08-31T14:39:41.840Z,27.05
2022-08-31T14:42:17.361Z,27.09
2022-08-31T14:44:56.850Z,27.13
2022-08-31T14:47:29.718Z,27.09
2022-08-31T14:50:05.953Z,27.09
2022-08-31T14:52:37.070Z,27.10
2022-08-31T14:55:11.302Z,27.00
2022-08-31T14:57:45.919Z,26.92
2022-08-31T15:00:23.359Z,26.54
2022-08-31T15:02:54.266Z,26.73
2022-08-31T15:05:26.300Z,26.63
2022-08-31T15:07:57.269Z,26.41
2022-08-31T15:10:28.903Z,26.17
2022-08-31T15:13:05.597Z,26.11
2022-08-31T15:15:37.982Z,25.81
2022-08-31T15:18:14.554Z,25.74
2022-08-31T15:20:44.657Z,25.85
2022-08-31T15:23:16.026Z,25.76
2022-08-31T15:25:47.383Z,25.74
2022-08-31T15:28:17.664Z,25.61
2022-08-31T15:30:48.484Z,25.52
2022-08-31T15:33:21.581Z,25.51
2022-08-31T15:35:52.036Z,25.58
2022-08-31T15:38:24.107Z,25.53
2022-08-31T15:40:55.474Z,25.47
2022-08-31T15:43:25.488Z,25.43
2022-08-31T15:45:55.598Z,25.47
2022-08-31T15:48:42.906Z,25.49
2022-08-31T15:51:20.631Z,25.39
2022-08-31T15:54:18.404Z,25.30
2022-08-31T15:56:44.127Z,25.35
2022-08-31T15:59:14.844Z,25.37
2022-08-31T16:01:44.811Z,25.35
2022-08-31T16:04:23.528Z,25.38
2022-08-31T16:06:55.567Z,25.34
2022-08-31T16:09:25.456Z,25.35
2022-08-31T16:11:56.918Z,25.24
2022-08-31T16:14:27.081Z,25.22
2022-08-31T16:16:59.849Z,25.16
2022-08-31T16:19:35.626Z,25.18
2022-08-31T16:22:08.074Z,25.18
2022-08-31T16:24:38.628Z,25.05
2022-08-31T16:27:12.588Z,25.02
2022-08-31T16:29:47.617Z,24.93
2022-08-31T16:32:18.320Z,24.89
2022-08-31T16:34:49.149Z,24.84
2022-08-31T16:37:19.307Z,24.76
2022-08-31T16:39:49.256Z,24.76
2022-08-31T16:42:20.717Z,24.64
2022-08-31T16:44:50.724Z,24.63
2022-08-31T16:47:20.703Z,24.58
2022-08-31T16:49:50.094Z,24.38
2022-08-31T16:52:24.261Z,24.33
2022-08-31T16:54:56.538Z,24.32
2022-08-31T16:57:32.635Z,24.30
2022-08-31T17:00:04.768Z,24.36
2022-08-31T17:02:34.684Z,24.23
2022-08-31T17:05:04.804Z,24.25
2022-08-31T17:07:34.762Z,24.03
2022-08-31T17:10:07.088Z,24.02
2022-08-31T17:12:42.009Z,23.88
2022-08-31T17:15:17.212Z,23.97
2022-08-31T17:17:48.086Z,23.98
2022-08-31T17:20:19.336Z,23.97
2022-08-31T17:22:50.911Z,23.75
2022-08-31T17:25:22.093Z,23.87
2022-08-31T17:27:59.829Z,23.71
2022-08-31T17:30:32.316Z,23.67
2022-08-31T17:33:02.491Z,23.73
2022-08-31T17:35:32.370Z,23.65
2022-08-31T17:38:03.286Z,23.67
2022-08-31T17:40:33.438Z,23.69
2022-08-31T17:43:04.825Z,23.69
2022-08-31T17:45:36.979Z,23.58
2022-08-31T17:48:06.928Z,23.54
2022-08-31T17:50:37.049Z,23.49
2022-08-31T17:53:06.964Z,23.54
2022-08-31T17:55:36.937Z,23.58
2022-08-31T17:58:08.508Z,23.54
2022-08-31T18:00:38.503Z,23.60
2022-08-31T18:03:08.628Z,23.54
2022-08-31T18:05:41.921Z,23.39
2022-08-31T18:08:14.158Z,23.59
2022-08-31T18:10:52.121Z,23.55
2022-08-31T18:13:24.408Z,23.72
2022-08-31T18:15:55.258Z,23.54
2022-08-31T18:18:25.227Z,23.58
2022-08-31T18:20:55.210Z,23.51
2022-08-31T18:23:25.279Z,23.38
2022-08-31T18:25:55.158Z,23.32
2022-08-31T18:28:26.405Z,23.31
2022-08-31T18:30:56.374Z,23.34
2022-08-31T18:33:26.495Z,23.43
2022-08-31T18:35:56.547Z,23.32
2022-08-31T18:38:26.464Z,23.31
2022-08-31T18:41:13.719Z,23.27
2022-08-31T18:44:14.119Z,23.32
2022-08-31T18:46:45.579Z,23.22
2022-08-31T18:49:15.527Z,23.23
2022-08-31T18:51:47.299Z,23.24
2022-08-31T18:54:17.988Z,23.24
2022-08-31T18:56:49.211Z,23.32
2022-08-31T18:59:21.504Z,23.18
2022-08-31T19:01:52.476Z,23.19
2022-08-31T19:04:23.061Z,23.25
2022-08-31T19:06:53.265Z,23.27
2022-08-31T19:09:24.180Z,23.22
2022-08-31T19:12:02.027Z,23.30
2022-08-31T19:14:35.184Z,23.09
2022-08-31T19:17:07.993Z,23.10
2022-08-31T19:19:38.352Z,23.10
2022-08-31T19:22:08.644Z,22.83
2022-08-31T19:24:40.880Z,22.96
2022-08-31T19:27:11.903Z,22.88
2022-08-31T19:29:43.550Z,22.87
2022-08-31T19:32:14.934Z,22.77
2022-08-31T19:34:48.079Z,22.85
2022-08-31T19:37:18.013Z,22.77
2022-08-31T19:39:49.733Z,22.85
2022-08-31T19:42:20.101Z,22.75
2022-08-31T19:45:22.919Z,22.83
2022-08-31T19:47:46.844Z,22.91
2022-08-31T19:50:17.953Z,22.87
2022-08-31T19:52:48.721Z,22.86
2022-08-31T19:55:18.873Z,22.76
2022-08-31T19:57:48.728Z,22.80
2022-08-31T20:00:20.383Z,22.88
2022-08-31T20:02:50.437Z,22.81
2022-08-31T20:05:21.006Z,22.90
2022-08-31T20:07:50.999Z,22.83
2022-08-31T20:10:30.057Z,22.95
2022-08-31T20:13:02.041Z,22.92
2022-08-31T20:15:33.605Z,22.88
2022-08-31T20:18:03.469Z,23.04
2022-08-31T20:20:36.175Z,22.91
2022-08-31T20:23:06.863Z,22.82
2022-08-31T20:25:38.759Z,22.88
2022-08-31T20:28:10.172Z,22.83
2022-08-31T20:30:43.501Z,22.75
2022-08-31T20:33:14.414Z,22.75
2022-08-31T20:35:47.590Z,22.77
2022-08-31T20:38:19.068Z,22.71
2022-08-31T20:40:52.340Z,22.85
2022-08-31T20:43:23.661Z,22.78
2022-08-31T20:45:55.283Z,22.78
2022-08-31T20:48:42.336Z,22.77
2022-08-31T20:51:16.264Z,22.73
2022-08-31T20:53:46.583Z,22.73
2022-08-31T20:56:18.951Z,22.75
2022-08-31T20:58:48.913Z,22.56
2022-08-31T21:01:21.719Z,22.54
2022-08-31T21:03:53.354Z,22.39
2022-08-31T21:06:26.136Z,22.53
2022-08-31T21:08:56.846Z,22.52
2022-08-31T21:11:26.863Z,22.62
2022-08-31T21:14:02.178Z,22.56
2022-08-31T21:16:35.842Z,22.37
2022-08-31T21:19:11.829Z,22.44
2022-08-31T21:21:43.363Z,22.39
2022-08-31T21:24:15.924Z,22.45
2022-08-31T21:26:46.542Z,22.49
2022-08-31T21:29:18.973Z,22.50
2022-08-31T21:31:56.830Z,22.52
2022-08-31T21:34:30.024Z,22.57
2022-08-31T21:37:00.568Z,22.65
2022-08-31T21:39:32.464Z,22.69
2022-08-31T21:42:02.548Z,22.64
2022-08-31T21:44:32.737Z,22.60
2022-08-31T21:47:04.518Z,22.50
2022-08-31T21:49:36.845Z,22.53
2022-08-31T21:52:06.784Z,22.53
2022-08-31T21:54:36.801Z,22.57
2022-08-31T21:57:06.874Z,22.57
2022-08-31T21:59:37.607Z,22.59
2022-08-31T22:02:11.447Z,22.51
2022-08-31T22:04:44.700Z,22.52
2022-08-31T22:07:15.377Z,22.43
2022-08-31T22:09:46.798Z,22.46
2022-08-31T22:12:18.056Z,22.56
2022-08-31T22:14:48.620Z,22.07
2022-08-31T22:17:20.827Z,22.21
2022-08-31T22:19:50.734Z,22.35
2022-08-31T22:22:23.565Z,22.33
2022-08-31T22:24:54.474Z,22.41
2022-08-31T22:27:24.971Z,22.35
2022-08-31T22:29:55.345Z,22.41
2022-08-31T22:32:26.731Z,22.38
2022-08-31T22:34:57.160Z,22.43
2022-08-31T22:37:27.019Z,22.47
2022-08-31T22:39:57.161Z,22.43
2022-08-31T22:42:27.903Z,22.27
2022-08-31T22:44:57.715Z,22.24
2022-08-31T22:47:29.010Z,22.24
2022-08-31T22:49:58.847Z,22.23
2022-08-31T22:52:28.777Z,22.33
2022-08-31T22:54:58.635Z,22.27
2022-08-31T22:57:28.716Z,22.05
2022-08-31T22:59:59.313Z,22.13
2022-08-31T23:02:31.253Z,21.98
2022-08-31T23:05:03.447Z,21.95
2022-08-31T23:07:33.301Z,21.98
2022-08-31T23:10:03.380Z,21.99
2022-08-31T23:12:33.464Z,22.05
2022-08-31T23:15:04.081Z,21.90
2022-08-31T23:17:35.430Z,21.96
2022-08-31T23:20:07.323Z,21.98
2022-08-31T23:22:37.259Z,22.03
2022-08-31T23:25:10.673Z,22.08
2022-08-31T23:27:40.728Z,22.05
2022-08-31T23:30:13.657Z,21.64
2022-08-31T23:32:44.978Z,21.94
2022-08-31T23:35:18.768Z,21.76
2022-08-31T23:37:52.262Z,21.86
2022-08-31T23:40:22.269Z,21.88
2022-08-31T23:42:52.638Z,21.79
2022-08-31T23:45:22.486Z,21.85
2022-08-31T23:47:57.772Z,21.74
2022-08-31T23:50:28.097Z,21.74
2022-08-31T23:52:59.123Z,21.77
2022-08-31T23:55:30.282Z,21.78
2022-08-31T23:58:02.392Z,21.72
